createdAt,value
2023-02-03T00:01:50.849Z,7.80
2023-02-03T00:04:17.196Z,12.50
2023-02-03T00:06:44.003Z,9.27
2023-02-03T00:09:10.738Z,11.13
2023-02-03T00:11:37.188Z,7.25
2023-02-03T00:14:03.643Z,11.95
2023-02-03T00:16:29.977Z,7.60
2023-02-03T00:18:58.657Z,8.40
2023-02-03T00:21:25.019Z,15.40
2023-02-03T00:23:51.837Z,8.05
2023-02-03T00:26:18.843Z,13.35
2023-02-03T00:28:45.555Z,8.07
2023-02-03T00:31:22.342Z,7.68
2023-02-03T00:33:54.789Z,7.55
2023-02-03T00:36:21.443Z,10.38
2023-02-03T00:38:47.940Z,11.80
2023-02-03T00:41:16.724Z,10.25
2023-02-03T00:43:43.749Z,7.32
2023-02-03T00:46:12.035Z,8.32
2023-02-03T00:48:38.532Z,9.52
2023-02-03T00:51:05.642Z,7.43
2023-02-03T00:53:32.133Z,7.47
2023-02-03T00:55:59.764Z,8.73
2023-02-03T00:58:28.254Z,9.20
2023-02-03T01:00:56.307Z,7.03
2023-02-03T01:03:22.674Z,9.18
2023-02-03T01:05:49.195Z,16.05
2023-02-03T01:08:15.719Z,10.30
2023-02-03T01:10:42.124Z,10.40
2023-02-03T01:13:08.475Z,10.00
2023-02-03T01:15:35.009Z,10.65
2023-02-03T01:18:01.354Z,18.55
2023-02-03T01:20:27.884Z,7.35
2023-02-03T01:22:54.459Z,6.57
2023-02-03T01:25:21.058Z,4.32
2023-02-03T01:27:47.467Z,9.85
2023-02-03T01:30:14.145Z,6.45
2023-02-03T01:32:40.572Z,10.70
2023-02-03T01:35:07.308Z,7.50
2023-02-03T01:37:33.652Z,8.73
2023-02-03T01:39:59.970Z,6.53
2023-02-03T01:42:26.428Z,10.20
2023-02-03T01:44:52.892Z,7.28
2023-02-03T01:47:30.978Z,7.60
2023-02-03T01:50:14.578Z,4.95
2023-02-03T01:52:44.476Z,5.15
2023-02-03T01:55:16.429Z,5.85
2023-02-03T01:57:50.168Z,10.13
2023-02-03T02:00:17.127Z,8.05
2023-02-03T02:02:47.718Z,8.85
2023-02-03T02:07:48.395Z,7.05
2023-02-03T02:10:14.731Z,5.63
2023-02-03T02:12:41.084Z,5.70
2023-02-03T02:15:08.079Z,8.63
2023-02-03T02:17:40.069Z,6.90
2023-02-03T02:20:28.310Z,4.68
2023-02-03T02:23:03.840Z,6.25
2023-02-03T02:26:02.675Z,6.15
2023-02-03T02:28:58.968Z,5.43
2023-02-03T02:31:56.317Z,7.90
2023-02-03T02:34:29.495Z,5.03
2023-02-03T02:37:16.367Z,7.63
2023-02-03T02:39:51.191Z,7.15
2023-02-03T02:42:25.622Z,3.40
2023-02-03T02:45:05.205Z,5.28
2023-02-03T02:47:32.315Z,5.75
2023-02-03T02:50:20.369Z,4.65
2023-02-03T02:52:49.919Z,4.70
2023-02-03T02:55:25.960Z,7.15
2023-02-03T02:57:56.317Z,4.40
2023-02-03T03:00:23.666Z,3.55
2023-02-03T03:02:50.110Z,7.15
2023-02-03T03:05:18.492Z,6.53
2023-02-03T03:07:51.409Z,6.65
2023-02-03T03:10:24.676Z,7.90
2023-02-03T03:12:59.477Z,6.10
2023-02-03T03:15:30.878Z,5.47
2023-02-03T03:18:35.642Z,4.68
2023-02-03T03:21:04.858Z,6.80
2023-02-03T03:23:46.594Z,6.32
2023-02-03T03:26:17.981Z,5.85
2023-02-03T03:28:51.537Z,3.88
2023-02-03T03:31:20.023Z,3.33
2023-02-03T03:33:47.957Z,6.05
2023-02-03T03:36:33.173Z,5.38
2023-02-03T03:39:24.448Z,5.10
2023-02-03T03:42:01.087Z,10.38
2023-02-03T03:47:28.490Z,7.63
2023-02-03T03:49:57.766Z,5.45
2023-02-03T03:52:29.544Z,7.25
2023-02-03T03:54:57.737Z,4.07
2023-02-03T03:57:33.763Z,5.07
2023-02-03T04:00:02.338Z,4.00
2023-02-03T04:02:30.001Z,4.68
2023-02-03T04:05:00.176Z,3.13
2023-02-03T04:07:47.238Z,4.75
2023-02-03T04:10:36.733Z,9.88
2023-02-03T04:13:04.240Z,2.80
2023-02-03T04:15:31.510Z,4.35
2023-02-03T04:18:02.388Z,6.85
2023-02-03T04:20:30.628Z,5.65
2023-02-03T04:22:59.816Z,3.97
2023-02-03T04:25:26.583Z,5.00
2023-02-03T04:27:53.062Z,11.90
2023-02-03T04:30:19.846Z,5.15
2023-02-03T04:32:46.694Z,5.72
2023-02-03T04:35:13.577Z,4.00
2023-02-03T04:37:40.178Z,5.57
2023-02-03T04:40:07.232Z,5.20
2023-02-03T04:42:33.863Z,5.07
2023-02-03T04:45:00.194Z,5.60
2023-02-03T04:47:26.586Z,3.67
2023-02-03T04:49:52.943Z,4.53
2023-02-03T04:52:19.375Z,5.65
2023-02-03T04:54:45.800Z,5.25
2023-02-03T04:57:12.156Z,7.00
2023-02-03T04:59:38.690Z,3.83
2023-02-03T05:02:05.470Z,5.78
2023-02-03T05:04:32.993Z,2.50
2023-02-03T05:06:59.418Z,4.50
2023-02-03T05:09:26.765Z,6.15
2023-02-03T05:11:53.739Z,3.10
2023-02-03T05:14:21.289Z,3.50
2023-02-03T05:16:47.826Z,4.38
2023-02-03T05:19:14.546Z,6.75
2023-02-03T05:21:40.941Z,4.82
2023-02-03T05:24:07.500Z,4.88
2023-02-03T05:26:37.444Z,5.78
2023-02-03T05:29:06.033Z,4.05
2023-02-03T05:31:33.619Z,6.32
2023-02-03T05:34:00.053Z,6.97
2023-02-03T05:36:26.403Z,3.45
2023-02-03T05:38:52.761Z,4.18
2023-02-03T05:41:19.102Z,3.83
2023-02-03T05:43:45.409Z,6.75
2023-02-03T05:46:12.020Z,5.25
2023-02-03T05:48:38.406Z,2.33
2023-02-03T05:51:04.897Z,5.13
2023-02-03T05:53:31.340Z,5.57
2023-02-03T05:55:57.878Z,5.75
2023-02-03T05:58:24.245Z,5.00
2023-02-03T06:00:52.076Z,5.93
2023-02-03T06:03:18.562Z,3.08
2023-02-03T06:05:45.092Z,5.78
2023-02-03T06:08:13.817Z,6.10
2023-02-03T06:10:40.395Z,5.13
2023-02-03T06:13:16.220Z,6.40
2023-02-03T06:15:42.958Z,6.63
2023-02-03T06:18:09.883Z,6.50
2023-02-03T06:20:36.302Z,5.25
2023-02-03T06:23:04.237Z,5.15
2023-02-03T06:25:30.607Z,9.50
2023-02-03T06:27:57.160Z,3.88
2023-02-03T06:30:23.611Z,6.38
2023-02-03T06:32:50.702Z,6.88
2023-02-03T06:35:18.062Z,5.43
2023-02-03T06:37:44.492Z,4.47
2023-02-03T06:40:13.720Z,7.97
2023-02-03T06:42:40.283Z,5.10
2023-02-03T06:45:07.258Z,8.13
2023-02-03T06:47:33.901Z,7.57
2023-02-03T06:50:00.226Z,7.85
2023-02-03T06:52:26.607Z,8.38
2023-02-03T06:54:53.017Z,9.73
2023-02-03T06:57:19.411Z,6.53
2023-02-03T06:59:45.737Z,6.35
2023-02-03T07:02:12.190Z,4.93
2023-02-03T07:04:38.631Z,4.28
2023-02-03T07:07:05.484Z,6.45
2023-02-03T07:09:32.017Z,7.90
2023-02-03T07:11:58.317Z,6.50
2023-02-03T07:14:24.605Z,4.22
2023-02-03T07:16:50.932Z,6.75
2023-02-03T07:19:17.321Z,7.50
2023-02-03T07:21:43.972Z,7.03
2023-02-03T07:24:10.372Z,4.55
2023-02-03T07:26:36.726Z,5.80
2023-02-03T07:29:03.201Z,4.63
2023-02-03T07:31:29.666Z,5.43
2023-02-03T07:33:56.151Z,6.22
2023-02-03T07:36:22.715Z,6.07
2023-02-03T07:38:49.143Z,5.28
2023-02-03T07:41:17.975Z,7.32
2023-02-03T07:43:44.517Z,5.85
2023-02-03T07:46:10.950Z,6.88
2023-02-03T07:48:37.379Z,6.25
2023-02-03T07:51:04.237Z,6.20
2023-02-03T07:53:31.219Z,8.35
2023-02-03T07:56:01.675Z,6.80
2023-02-03T07:58:29.193Z,6.13
2023-02-03T08:00:55.729Z,8.43
2023-02-03T08:03:22.420Z,8.90
2023-02-03T08:05:49.179Z,4.72
2023-02-03T08:08:16.138Z,4.80
2023-02-03T08:10:45.363Z,4.97
2023-02-03T08:13:11.965Z,5.82
2023-02-03T08:15:38.397Z,4.80
2023-02-03T08:18:04.749Z,5.90
2023-02-03T08:20:31.236Z,7.07
2023-02-03T08:22:57.767Z,6.93
2023-02-03T08:25:24.212Z,7.00
2023-02-03T08:27:50.773Z,3.53
2023-02-03T08:30:17.363Z,7.63
2023-02-03T08:35:24.356Z,9.60
2023-02-03T08:37:50.740Z,8.57
2023-02-03T08:40:17.921Z,6.97
2023-02-03T08:42:44.522Z,7.68
2023-02-03T08:45:11.626Z,5.00
2023-02-03T08:47:39.374Z,7.07
2023-02-03T08:50:08.115Z,6.13
2023-02-03T08:52:34.709Z,5.95
2023-02-03T08:55:01.089Z,6.97
2023-02-03T08:57:27.477Z,6.35
2023-02-03T08:59:54.467Z,9.02
2023-02-03T09:02:20.812Z,8.00
2023-02-03T09:04:47.286Z,7.68
2023-02-03T09:07:13.936Z,6.10
2023-02-03T09:09:40.385Z,7.10
2023-02-03T09:12:07.528Z,6.78
2023-02-03T09:14:34.726Z,10.00
2023-02-03T09:17:02.969Z,5.93
2023-02-03T09:19:30.173Z,3.50
2023-02-03T09:21:56.622Z,5.72
2023-02-03T09:24:23.889Z,7.88
2023-02-03T09:26:50.622Z,3.70
2023-02-03T09:29:17.266Z,7.35
2023-02-03T09:31:43.775Z,3.72
2023-02-03T09:34:10.227Z,7.80
2023-02-03T09:36:36.552Z,5.93
2023-02-03T09:39:03.143Z,6.05
2023-02-03T09:41:44.429Z,3.60
2023-02-03T09:44:38.725Z,5.80
2023-02-03T09:49:47.054Z,5.63
2023-02-03T09:52:24.688Z,4.22
2023-02-03T09:55:19.319Z,8.07
2023-02-03T09:57:55.320Z,5.07
2023-02-03T10:00:42.274Z,7.80
2023-02-03T10:03:21.408Z,7.90
2023-02-03T10:06:19.346Z,6.10
2023-02-03T10:09:01.420Z,4.15
2023-02-03T10:12:09.441Z,5.75
2023-02-03T10:15:05.931Z,3.67
2023-02-03T10:17:44.107Z,4.75
2023-02-03T10:20:22.015Z,4.20
2023-02-03T10:22:57.056Z,6.03
2023-02-03T10:25:42.425Z,6.50
2023-02-03T10:28:18.615Z,6.10
2023-02-03T10:30:57.571Z,3.47
2023-02-03T10:33:31.951Z,4.70
2023-02-03T10:36:01.462Z,9.73
2023-02-03T10:38:35.000Z,6.60
2023-02-03T10:41:02.558Z,9.68
2023-02-03T10:43:31.668Z,2.50
2023-02-03T10:45:58.773Z,4.97
2023-02-03T10:48:25.396Z,4.68
2023-02-03T10:50:54.513Z,5.00
2023-02-03T10:53:23.067Z,6.20
2023-02-03T10:56:08.760Z,6.57
2023-02-03T10:58:38.475Z,7.18
2023-02-03T11:01:17.055Z,7.88
2023-02-03T11:03:56.854Z,5.70
2023-02-03T11:06:23.406Z,8.07
2023-02-03T11:08:51.252Z,7.40
2023-02-03T11:11:28.574Z,6.10
2023-02-03T11:14:04.984Z,6.40
2023-02-03T11:19:00.885Z,4.22
2023-02-03T11:21:32.256Z,7.43
2023-02-03T11:24:25.574Z,5.72
2023-02-03T11:27:00.321Z,4.38
2023-02-03T11:29:38.224Z,6.38
2023-02-03T11:32:16.649Z,9.45
2023-02-03T11:34:52.619Z,4.00
2023-02-03T11:37:37.987Z,7.35
2023-02-03T11:40:07.760Z,4.60
2023-02-03T11:42:36.812Z,5.30
2023-02-03T11:45:26.505Z,4.47
2023-02-03T11:47:53.064Z,4.65
2023-02-03T11:50:28.697Z,5.38
2023-02-03T11:53:31.201Z,5.15
2023-02-03T11:56:33.170Z,3.35
2023-02-03T11:59:24.038Z,4.45
2023-02-03T12:02:32.300Z,4.25
2023-02-03T12:05:13.250Z,6.90
2023-02-03T12:07:57.279Z,8.40
2023-02-03T12:10:31.469Z,7.32
2023-02-03T12:13:05.670Z,7.20
2023-02-03T12:16:03.687Z,8.82
2023-02-03T12:18:55.219Z,5.95
2023-02-03T12:21:43.500Z,10.65
2023-02-03T12:27:09.025Z,5.28
2023-02-03T12:29:48.036Z,6.93
2023-02-03T12:32:50.188Z,4.60
2023-02-03T12:35:31.660Z,7.93
2023-02-03T12:38:10.421Z,6.78
2023-02-03T12:40:51.950Z,6.47
2023-02-03T12:43:30.840Z,7.55
2023-02-03T12:46:09.660Z,8.00
2023-02-03T12:48:45.124Z,4.85
2023-02-03T12:51:17.853Z,8.52
2023-02-03T12:53:53.674Z,4.88
2023-02-03T12:56:28.207Z,5.28
2023-02-03T12:59:02.544Z,4.32
2023-02-03T13:01:33.297Z,6.85
2023-02-03T13:04:29.839Z,4.28
2023-02-03T13:07:17.252Z,10.80
2023-02-03T13:10:04.818Z,7.32
2023-02-03T13:12:41.259Z,12.95
2023-02-03T13:15:46.426Z,5.63
2023-02-03T13:18:31.213Z,9.73
2023-02-03T13:20:57.725Z,7.78
2023-02-03T13:23:24.956Z,5.75
2023-02-03T13:25:51.272Z,7.85
2023-02-03T13:28:40.780Z,10.98
2023-02-03T13:31:18.721Z,8.35
2023-02-03T13:34:00.924Z,15.43
2023-02-03T13:36:52.570Z,9.10
2023-02-03T13:39:45.824Z,8.68
2023-02-03T13:42:27.567Z,6.03
2023-02-03T13:44:58.798Z,7.40
2023-02-03T13:47:29.915Z,14.50
2023-02-03T13:50:00.330Z,5.78
2023-02-03T13:52:55.162Z,12.55
2023-02-03T13:55:37.082Z,9.38
2023-02-03T13:58:05.005Z,11.98
2023-02-03T14:00:43.485Z,9.90
2023-02-03T14:03:18.444Z,8.15
2023-02-03T14:05:49.347Z,8.98
2023-02-03T14:08:27.800Z,8.02
2023-02-03T14:11:31.878Z,14.35
2023-02-03T14:14:07.449Z,13.70
2023-02-03T14:16:40.422Z,9.45
2023-02-03T14:19:11.431Z,10.30
2023-02-03T14:21:46.982Z,11.90
2023-02-03T14:24:14.266Z,13.43
2023-02-03T14:26:55.580Z,9.43
2023-02-03T14:29:36.528Z,11.02
2023-02-03T14:32:13.246Z,15.02
2023-02-03T14:34:42.472Z,13.48
2023-02-03T14:37:25.341Z,7.63
2023-02-03T14:40:51.993Z,15.82
2023-02-03T14:43:51.655Z,6.53
2023-02-03T14:46:24.423Z,13.55
2023-02-03T14:49:03.945Z,8.43
2023-02-03T14:51:55.909Z,12.15
2023-02-03T14:54:39.664Z,11.13
2023-02-03T14:57:31.477Z,11.18
2023-02-03T15:00:03.024Z,11.30
2023-02-03T15:02:31.670Z,11.52
2023-02-03T15:05:13.586Z,14.68
2023-02-03T15:07:47.246Z,12.88
2023-02-03T15:10:26.869Z,14.32
2023-02-03T15:12:55.639Z,12.00
2023-02-03T15:15:25.809Z,13.25
2023-02-03T15:17:55.414Z,11.20
2023-02-03T15:20:34.352Z,10.60
2023-02-03T15:23:02.436Z,11.65
2023-02-03T15:25:31.360Z,11.60
2023-02-03T15:28:12.450Z,9.05
2023-02-03T15:30:40.970Z,11.95
2023-02-03T15:33:14.093Z,11.38
2023-02-03T15:35:43.424Z,10.48
2023-02-03T15:38:27.951Z,11.43
2023-02-03T15:40:56.131Z,10.30
2023-02-03T15:43:38.314Z,8.55
2023-02-03T15:46:14.188Z,13.20
2023-02-03T15:48:50.744Z,13.70
2023-02-03T15:54:27.146Z,12.90
2023-02-03T15:57:06.386Z,13.52
2023-02-03T15:59:39.498Z,9.70
2023-02-03T16:02:19.436Z,17.27
2023-02-03T16:04:46.169Z,13.02
2023-02-03T16:07:22.978Z,12.75
2023-02-03T16:09:54.423Z,13.15
2023-02-03T16:12:25.860Z,13.35
2023-02-03T16:14:53.951Z,13.15
2023-02-03T16:17:35.052Z,9.25
2023-02-03T16:20:10.682Z,13.18
2023-02-03T16:22:42.941Z,10.90
2023-02-03T16:25:12.965Z,15.77
2023-02-03T16:27:39.301Z,17.10
2023-02-03T16:30:05.782Z,12.27
2023-02-03T16:32:32.505Z,14.43
2023-02-03T16:34:59.048Z,14.10
2023-02-03T16:37:34.717Z,16.15
2023-02-03T16:40:02.115Z,10.25
2023-02-03T16:42:38.107Z,11.48
2023-02-03T16:45:14.265Z,11.85
2023-02-03T16:50:14.623Z,16.67
2023-02-03T16:52:40.935Z,9.38
2023-02-03T16:55:08.969Z,11.60
2023-02-03T16:57:35.349Z,10.93
2023-02-03T17:00:02.251Z,10.00
2023-02-03T17:02:28.774Z,11.88
2023-02-03T17:04:55.172Z,11.73
2023-02-03T17:07:21.617Z,10.68
2023-02-03T17:09:47.948Z,15.68
2023-02-03T17:12:14.307Z,14.48
2023-02-03T17:14:44.165Z,15.15
2023-02-03T17:17:10.504Z,11.48
2023-02-03T17:19:36.896Z,10.35
2023-02-03T17:22:03.709Z,16.27
2023-02-03T17:24:30.295Z,8.93
2023-02-03T17:26:58.862Z,8.38
2023-02-03T17:29:25.448Z,9.20
2023-02-03T17:31:52.211Z,10.55
2023-02-03T17:34:19.188Z,13.38
2023-02-03T17:36:45.567Z,14.52
2023-02-03T17:55:32.149Z,10.23
2023-02-03T17:57:58.634Z,10.40
2023-02-03T18:00:26.124Z,12.02
2023-02-03T18:02:55.724Z,11.65
2023-02-03T18:05:22.764Z,9.20
2023-02-03T18:07:49.303Z,11.82
2023-02-03T18:10:15.920Z,11.43
2023-02-03T18:12:42.325Z,13.63
2023-02-03T18:15:09.014Z,10.77
2023-02-03T18:17:36.481Z,14.75
2023-02-03T18:20:03.763Z,16.25
2023-02-03T18:22:30.245Z,13.35
2023-02-03T18:24:56.993Z,13.00
2023-02-03T18:27:23.366Z,12.55
2023-02-03T18:29:49.646Z,16.58
2023-02-03T18:32:17.002Z,15.10
2023-02-03T18:34:43.730Z,17.52
2023-02-03T18:37:11.202Z,17.10
2023-02-03T18:39:37.994Z,17.42
2023-02-03T18:42:04.714Z,16.15
2023-02-03T18:44:34.116Z,12.25
2023-02-03T18:47:00.545Z,12.95
2023-02-03T18:49:28.125Z,11.82
2023-02-03T18:51:55.303Z,11.98
2023-02-03T18:54:21.699Z,14.30
2023-02-03T18:56:48.200Z,18.60
2023-02-03T18:59:16.016Z,14.52
2023-02-03T19:01:43.872Z,13.38
2023-02-03T19:04:11.356Z,12.82
2023-02-03T19:06:38.001Z,14.70
2023-02-03T19:09:04.583Z,19.05
2023-02-03T19:11:31.067Z,16.50
2023-02-03T19:13:57.425Z,14.18
2023-02-03T19:16:26.064Z,16.10
2023-02-03T19:18:52.505Z,20.85
2023-02-03T19:21:18.849Z,10.75
2023-02-03T19:23:45.188Z,13.93
2023-02-03T19:26:11.722Z,15.82
2023-02-03T19:28:38.786Z,9.93
2023-02-03T19:31:10.919Z,13.48
2023-02-03T19:33:37.672Z,8.90
2023-02-03T19:36:08.251Z,16.65
2023-02-03T19:41:01.626Z,12.43
2023-02-03T19:43:29.381Z,13.60
2023-02-03T19:45:55.678Z,12.73
2023-02-03T19:48:22.114Z,14.55
2023-02-03T19:50:49.017Z,16.00
2023-02-03T19:53:17.385Z,15.10
2023-02-03T19:55:44.745Z,16.10
2023-02-03T19:58:12.685Z,18.42
2023-02-03T20:00:39.266Z,12.98
2023-02-03T20:03:05.662Z,12.50
2023-02-03T20:05:31.962Z,14.95
2023-02-03T20:07:58.342Z,14.63
2023-02-03T20:10:24.880Z,20.38
2023-02-03T20:12:51.265Z,11.82
2023-02-03T20:15:17.640Z,13.40
2023-02-03T20:17:44.033Z,16.83
2023-02-03T20:20:10.721Z,17.75
2023-02-03T20:22:37.389Z,15.35
2023-02-03T20:25:03.936Z,11.85
2023-02-03T20:27:30.314Z,15.98
2023-02-03T20:29:56.633Z,12.55
2023-02-03T20:32:23.067Z,16.88
2023-02-03T20:34:49.501Z,14.05
2023-02-03T20:37:15.946Z,12.48
2023-02-03T20:39:42.403Z,10.75
2023-02-03T20:42:17.174Z,17.80
2023-02-03T20:44:44.533Z,15.85
2023-02-03T20:47:13.765Z,16.70
2023-02-03T20:49:40.202Z,14.88
2023-02-03T20:52:12.759Z,13.40
2023-02-03T20:54:42.140Z,12.35
2023-02-03T20:57:14.394Z,12.40
2023-02-03T20:59:41.252Z,9.80
2023-02-03T21:02:33.984Z,13.20
2023-02-03T21:05:02.206Z,16.88
2023-02-03T21:07:30.128Z,17.48
2023-02-03T21:09:58.773Z,22.52
2023-02-03T21:12:25.310Z,16.48
2023-02-03T21:14:51.701Z,11.70
2023-02-03T21:17:20.766Z,12.20
2023-02-03T21:19:47.402Z,12.07
2023-02-03T21:22:27.578Z,15.88
2023-02-03T21:24:55.858Z,16.35
2023-02-03T21:27:23.529Z,16.20
2023-02-03T21:29:50.590Z,11.43
2023-02-03T21:32:16.994Z,11.50
2023-02-03T21:34:44.595Z,13.85
2023-02-03T21:37:19.843Z,16.75
2023-02-03T21:39:47.783Z,15.48
2023-02-03T21:42:29.397Z,11.73
2023-02-03T21:44:55.742Z,16.75
2023-02-03T21:47:22.374Z,16.80
2023-02-03T21:49:48.723Z,10.32
2023-02-03T21:52:15.556Z,11.90
2023-02-03T21:54:42.586Z,8.25
2023-02-03T21:57:15.604Z,13.25
2023-02-03T21:59:42.612Z,13.80
2023-02-03T22:02:50.647Z,11.38
2023-02-03T22:05:17.123Z,12.30
2023-02-03T22:07:43.526Z,11.50
2023-02-03T22:10:09.948Z,16.92
2023-02-03T22:12:36.323Z,14.85
2023-02-03T22:15:02.725Z,11.20
2023-02-03T22:17:29.046Z,10.23
2023-02-03T22:19:55.368Z,16.75
2023-02-03T22:22:21.703Z,13.00
2023-02-03T22:24:48.081Z,13.32
2023-02-03T22:27:14.413Z,14.63
2023-02-03T22:29:40.774Z,12.57
2023-02-03T22:32:07.163Z,14.75
2023-02-03T22:34:33.486Z,12.23
2023-02-03T22:36:59.786Z,13.45
2023-02-03T22:39:26.139Z,11.60
2023-02-03T22:41:52.466Z,11.85
2023-02-03T22:44:18.816Z,14.00
2023-02-03T22:46:45.136Z,11.07
2023-02-03T22:49:11.493Z,20.05
2023-02-03T22:51:37.822Z,13.07
2023-02-03T22:54:04.404Z,15.88
2023-02-03T22:56:30.769Z,11.32
2023-02-03T22:58:57.159Z,9.65
2023-02-03T23:01:23.602Z,6.68
2023-02-03T23:03:49.944Z,8.20
2023-02-03T23:06:16.294Z,14.05
2023-02-03T23:08:42.717Z,7.85
2023-02-03T23:11:09.130Z,9.38
2023-02-03T23:13:35.512Z,9.13
2023-02-03T23:16:01.886Z,7.60
2023-02-03T23:18:28.264Z,7.05
2023-02-03T23:20:54.624Z,9.88
2023-02-03T23:23:21.067Z,8.95
2023-02-03T23:25:47.670Z,8.88
2023-02-03T23:28:14.163Z,13.02
2023-02-03T23:30:40.929Z,15.40
2023-02-03T23:33:07.314Z,9.73
2023-02-03T23:35:33.603Z,8.13
2023-02-03T23:38:00.076Z,12.45
2023-02-03T23:40:26.482Z,11.02
2023-02-03T23:42:52.787Z,12.80
2023-02-03T23:45:19.142Z,7.13
2023-02-03T23:47:46.194Z,8.63
2023-02-03T23:50:16.003Z,14.32
2023-02-03T23:52:42.817Z,9.55
2023-02-03T23:55:11.518Z,10.85
2023-02-03T23:57:38.434Z,11.02
